sensor_id;sensor_type;location;lat;lon;timestamp;P1;durP1;ratioP1;P2;durP2;ratioP2
23750;SDS011;12055;52.098;13.176;2022-07-23T00:00:27;6.78;;;4.07;;
23750;SDS011;12055;52.098;13.176;2022-07-23T00:02:53;6.20;;;4.38;;
23750;SDS011;12055;52.098;13.176;2022-07-23T00:05:18;8.07;;;5.15;;
23750;SDS011;12055;52.098;13.176;2022-07-23T00:07:44;8.60;;;5.40;;
23750;SDS011;12055;52.098;13.176;2022-07-23T00:10:09;5.78;;;4.25;;
23750;SDS011;12055;52.098;13.176;2022-07-23T00:12:35;7.72;;;4.78;;
23750;SDS011;12055;52.098;13.176;2022-07-23T00:15:01;8.27;;;4.78;;
23750;SDS011;12055;52.098;13.176;2022-07-23T00:17:27;8.20;;;5.07;;
23750;SDS011;12055;52.098;13.176;2022-07-23T00:19:53;5.13;;;3.85;;
23750;SDS011;12055;52.098;13.176;2022-07-23T00:22:18;6.93;;;4.85;;
23750;SDS011;12055;52.098;13.176;2022-07-23T00:24:44;8.77;;;4.97;;
23750;SDS011;12055;52.098;13.176;2022-07-23T00:27:09;7.70;;;4.55;;
23750;SDS011;12055;52.098;13.176;2022-07-23T00:29:35;8.35;;;4.72;;
23750;SDS011;12055;52.098;13.176;2022-07-23T00:32:00;7.95;;;5.18;;
23750;SDS011;12055;52.098;13.176;2022-07-23T00:34:26;7.72;;;5.22;;
23750;SDS011;12055;52.098;13.176;2022-07-23T00:36:51;9.73;;;5.55;;
23750;SDS011;12055;52.098;13.176;2022-07-23T00:39:18;10.52;;;5.82;;
23750;SDS011;12055;52.098;13.176;2022-07-23T00:41:45;10.18;;;5.93;;
23750;SDS011;12055;52.098;13.176;2022-07-23T00:44:15;8.43;;;5.63;;
23750;SDS011;12055;52.098;13.176;2022-07-23T00:46:50;7.82;;;5.35;;
23750;SDS011;12055;52.098;13.176;2022-07-23T00:49:26;8.80;;;5.35;;
23750;SDS011;12055;52.098;13.176;2022-07-23T00:51:54;6.95;;;4.60;;
23750;SDS011;12055;52.098;13.176;2022-07-23T00:54:22;7.65;;;4.57;;
23750;SDS011;12055;52.098;13.176;2022-07-23T00:56:48;7.93;;;4.85;;
23750;SDS011;12055;52.098;13.176;2022-07-23T00:59:14;6.93;;;4.07;;
23750;SDS011;12055;52.098;13.176;2022-07-23T01:01:40;8.63;;;5.30;;
23750;SDS011;12055;52.098;13.176;2022-07-23T01:04:06;10.93;;;6.28;;
23750;SDS011;12055;52.098;13.176;2022-07-23T01:06:35;8.13;;;5.65;;
23750;SDS011;12055;52.098;13.176;2022-07-23T01:09:02;7.80;;;4.82;;
23750;SDS011;12055;52.098;13.176;2022-07-23T01:11:33;7.75;;;4.95;;
23750;SDS011;12055;52.098;13.176;2022-07-23T01:14:07;9.82;;;5.00;;
23750;SDS011;12055;52.098;13.176;2022-07-23T01:16:33;7.63;;;4.68;;
23750;SDS011;12055;52.098;13.176;2022-07-23T01:18:59;8.00;;;4.78;;
23750;SDS011;12055;52.098;13.176;2022-07-23T01:21:24;7.65;;;4.60;;
23750;SDS011;12055;52.098;13.176;2022-07-23T01:23:50;7.93;;;5.47;;
23750;SDS011;12055;52.098;13.176;2022-07-23T01:26:16;7.55;;;5.45;;
23750;SDS011;12055;52.098;13.176;2022-07-23T01:28:42;10.18;;;6.05;;
23750;SDS011;12055;52.098;13.176;2022-07-23T01:31:07;8.70;;;5.18;;
23750;SDS011;12055;52.098;13.176;2022-07-23T01:33:33;8.13;;;5.13;;
23750;SDS011;12055;52.098;13.176;2022-07-23T01:35:58;8.20;;;4.65;;
23750;SDS011;12055;52.098;13.176;2022-07-23T01:38:24;7.43;;;4.70;;
23750;SDS011;12055;52.098;13.176;2022-07-23T01:40:49;8.60;;;4.90;;
23750;SDS011;12055;52.098;13.176;2022-07-23T01:43:15;9.50;;;5.30;;
23750;SDS011;12055;52.098;13.176;2022-07-23T01:45:40;9.68;;;5.82;;
23750;SDS011;12055;52.098;13.176;2022-07-23T01:48:07;12.15;;;5.15;;
23750;SDS011;12055;52.098;13.176;2022-07-23T01:50:33;10.13;;;5.45;;
23750;SDS011;12055;52.098;13.176;2022-07-23T01:52:58;9.40;;;5.40;;
23750;SDS011;12055;52.098;13.176;2022-07-23T01:55:24;6.88;;;4.97;;
23750;SDS011;12055;52.098;13.176;2022-07-23T01:57:49;8.57;;;5.10;;
23750;SDS011;12055;52.098;13.176;2022-07-23T02:00:15;10.20;;;5.43;;
23750;SDS011;12055;52.098;13.176;2022-07-23T02:02:40;9.25;;;6.00;;
23750;SDS011;12055;52.098;13.176;2022-07-23T02:05:06;10.25;;;5.95;;
23750;SDS011;12055;52.098;13.176;2022-07-23T02:07:32;7.50;;;5.43;;
23750;SDS011;12055;52.098;13.176;2022-07-23T02:09:58;9.90;;;5.68;;
23750;SDS011;12055;52.098;13.176;2022-07-23T02:12:23;7.65;;;5.32;;
23750;SDS011;12055;52.098;13.176;2022-07-23T02:14:49;8.60;;;5.88;;
23750;SDS011;12055;52.098;13.176;2022-07-23T02:17:14;9.60;;;5.82;;
23750;SDS011;12055;52.098;13.176;2022-07-23T02:19:40;10.48;;;6.63;;
23750;SDS011;12055;52.098;13.176;2022-07-23T02:22:05;7.95;;;5.57;;
23750;SDS011;12055;52.098;13.176;2022-07-23T02:24:31;8.73;;;6.43;;
23750;SDS011;12055;52.098;13.176;2022-07-23T02:26:56;7.65;;;5.82;;
23750;SDS011;12055;52.098;13.176;2022-07-23T02:29:21;9.10;;;5.25;;
23750;SDS011;12055;52.098;13.176;2022-07-23T02:31:47;9.25;;;5.43;;
23750;SDS011;12055;52.098;13.176;2022-07-23T02:34:12;14.00;;;6.75;;
23750;SDS011;12055;52.098;13.176;2022-07-23T02:36:38;10.52;;;6.90;;
23750;SDS011;12055;52.098;13.176;2022-07-23T02:39:04;10.70;;;7.57;;
23750;SDS011;12055;52.098;13.176;2022-07-23T02:41:30;11.10;;;7.80;;
23750;SDS011;12055;52.098;13.176;2022-07-23T02:43:55;9.73;;;7.30;;
23750;SDS011;12055;52.098;13.176;2022-07-23T02:46:21;10.70;;;6.63;;
23750;SDS011;12055;52.098;13.176;2022-07-23T02:48:46;10.82;;;6.53;;
23750;SDS011;12055;52.098;13.176;2022-07-23T02:51:12;13.95;;;6.90;;
23750;SDS011;12055;52.098;13.176;2022-07-23T02:53:37;10.85;;;7.15;;
23750;SDS011;12055;52.098;13.176;2022-07-23T02:56:02;10.30;;;6.65;;
23750;SDS011;12055;52.098;13.176;2022-07-23T02:58:28;13.38;;;7.63;;
23750;SDS011;12055;52.098;13.176;2022-07-23T03:00:54;10.95;;;7.40;;
23750;SDS011;12055;52.098;13.176;2022-07-23T03:03:19;13.35;;;7.68;;
23750;SDS011;12055;52.098;13.176;2022-07-23T03:05:45;9.85;;;6.43;;
23750;SDS011;12055;52.098;13.176;2022-07-23T03:08:10;11.65;;;6.53;;
23750;SDS011;12055;52.098;13.176;2022-07-23T03:10:36;14.30;;;7.78;;
23750;SDS011;12055;52.098;13.176;2022-07-23T03:13:01;11.55;;;7.90;;
23750;SDS011;12055;52.098;13.176;2022-07-23T03:15:27;10.18;;;6.28;;
23750;SDS011;12055;52.098;13.176;2022-07-23T03:17:52;12.05;;;7.20;;
23750;SDS011;12055;52.098;13.176;2022-07-23T03:20:18;10.27;;;6.88;;
23750;SDS011;12055;52.098;13.176;2022-07-23T03:22:43;14.82;;;6.63;;
23750;SDS011;12055;52.098;13.176;2022-07-23T03:25:09;13.13;;;6.95;;
23750;SDS011;12055;52.098;13.176;2022-07-23T03:27:34;9.38;;;6.25;;
23750;SDS011;12055;52.098;13.176;2022-07-23T03:30:00;10.38;;;6.25;;
23750;SDS011;12055;52.098;13.176;2022-07-23T03:32:26;10.05;;;6.53;;
23750;SDS011;12055;52.098;13.176;2022-07-23T03:34:51;10.23;;;6.50;;
23750;SDS011;12055;52.098;13.176;2022-07-23T03:37:17;11.77;;;6.30;;
23750;SDS011;12055;52.098;13.176;2022-07-23T03:39:44;12.52;;;6.30;;
23750;SDS011;12055;52.098;13.176;2022-07-23T03:42:09;12.52;;;7.35;;
23750;SDS011;12055;52.098;13.176;2022-07-23T03:44:35;11.27;;;6.55;;
23750;SDS011;12055;52.098;13.176;2022-07-23T03:47:04;9.80;;;6.78;;
23750;SDS011;12055;52.098;13.176;2022-07-23T03:49:30;8.18;;;6.00;;
23750;SDS011;12055;52.098;13.176;2022-07-23T03:51:56;11.65;;;6.10;;
23750;SDS011;12055;52.098;13.176;2022-07-23T03:54:21;12.52;;;6.32;;
23750;SDS011;12055;52.098;13.176;2022-07-23T03:56:47;10.55;;;5.93;;
23750;SDS011;12055;52.098;13.176;2022-07-23T03:59:12;11.18;;;6.55;;
23750;SDS011;12055;52.098;13.176;2022-07-23T04:01:38;9.68;;;5.47;;
23750;SDS011;12055;52.098;13.176;2022-07-23T04:04:04;9.38;;;6.13;;
23750;SDS011;12055;52.098;13.176;2022-07-23T04:06:29;10.23;;;5.57;;
23750;SDS011;12055;52.098;13.176;2022-07-23T04:08:55;9.05;;;6.00;;
23750;SDS011;12055;52.098;13.176;2022-07-23T04:11:21;8.55;;;5.43;;
23750;SDS011;12055;52.098;13.176;2022-07-23T04:13:46;10.80;;;6.20;;
23750;SDS011;12055;52.098;13.176;2022-07-23T04:16:12;8.18;;;5.85;;
23750;SDS011;12055;52.098;13.176;2022-07-23T04:18:37;10.65;;;6.20;;
23750;SDS011;12055;52.098;13.176;2022-07-23T04:21:03;8.48;;;5.38;;
23750;SDS011;12055;52.098;13.176;2022-07-23T04:23:28;10.35;;;5.60;;
23750;SDS011;12055;52.098;13.176;2022-07-23T04:25:54;9.07;;;5.38;;
23750;SDS011;12055;52.098;13.176;2022-07-23T04:28:19;9.68;;;5.22;;
23750;SDS011;12055;52.098;13.176;2022-07-23T04:30:45;10.13;;;6.07;;
23750;SDS011;12055;52.098;13.176;2022-07-23T04:33:10;8.70;;;5.40;;
23750;SDS011;12055;52.098;13.176;2022-07-23T04:35:36;10.23;;;5.57;;
23750;SDS011;12055;52.098;13.176;2022-07-23T04:38:02;8.85;;;6.03;;
23750;SDS011;12055;52.098;13.176;2022-07-23T04:40:28;9.40;;;5.50;;
23750;SDS011;12055;52.098;13.176;2022-07-23T04:42:55;8.68;;;5.88;;
23750;SDS011;12055;52.098;13.176;2022-07-23T04:45:21;9.70;;;5.55;;
23750;SDS011;12055;52.098;13.176;2022-07-23T04:47:48;10.43;;;5.38;;
23750;SDS011;12055;52.098;13.176;2022-07-23T04:50:14;12.35;;;6.13;;
23750;SDS011;12055;52.098;13.176;2022-07-23T04:52:43;11.85;;;5.20;;
23750;SDS011;12055;52.098;13.176;2022-07-23T04:55:09;9.32;;;5.10;;
23750;SDS011;12055;52.098;13.176;2022-07-23T04:57:35;7.43;;;5.25;;
23750;SDS011;12055;52.098;13.176;2022-07-23T05:00:00;5.55;;;4.35;;
23750;SDS011;12055;52.098;13.176;2022-07-23T05:02:26;9.52;;;4.47;;
23750;SDS011;12055;52.098;13.176;2022-07-23T05:04:52;11.32;;;4.57;;
23750;SDS011;12055;52.098;13.176;2022-07-23T05:07:17;10.52;;;4.80;;
23750;SDS011;12055;52.098;13.176;2022-07-23T05:09:43;6.97;;;4.28;;
23750;SDS011;12055;52.098;13.176;2022-07-23T05:12:08;8.50;;;4.20;;
23750;SDS011;12055;52.098;13.176;2022-07-23T05:14:34;6.50;;;4.35;;
23750;SDS011;12055;52.098;13.176;2022-07-23T05:16:59;8.05;;;4.38;;
23750;SDS011;12055;52.098;13.176;2022-07-23T05:19:25;8.00;;;4.50;;
23750;SDS011;12055;52.098;13.176;2022-07-23T05:21:50;8.27;;;4.68;;
23750;SDS011;12055;52.098;13.176;2022-07-23T05:24:16;7.90;;;4.78;;
23750;SDS011;12055;52.098;13.176;2022-07-23T05:26:41;9.45;;;5.07;;
23750;SDS011;12055;52.098;13.176;2022-07-23T05:29:07;6.88;;;4.65;;
23750;SDS011;12055;52.098;13.176;2022-07-23T05:31:32;10.50;;;5.03;;
23750;SDS011;12055;52.098;13.176;2022-07-23T05:33:58;5.22;;;4.05;;
23750;SDS011;12055;52.098;13.176;2022-07-23T05:36:23;7.00;;;4.38;;
23750;SDS011;12055;52.098;13.176;2022-07-23T05:38:49;12.80;;;5.65;;
23750;SDS011;12055;52.098;13.176;2022-07-23T05:41:14;9.57;;;4.57;;
23750;SDS011;12055;52.098;13.176;2022-07-23T05:43:39;7.45;;;4.80;;
23750;SDS011;12055;52.098;13.176;2022-07-23T05:46:05;10.63;;;5.03;;
23750;SDS011;12055;52.098;13.176;2022-07-23T05:48:30;7.28;;;4.50;;
23750;SDS011;12055;52.098;13.176;2022-07-23T05:50:56;9.20;;;5.18;;
23750;SDS011;12055;52.098;13.176;2022-07-23T05:53:22;8.35;;;4.47;;
23750;SDS011;12055;52.098;13.176;2022-07-23T05:55:47;6.68;;;4.40;;
23750;SDS011;12055;52.098;13.176;2022-07-23T05:58:13;8.80;;;4.88;;
23750;SDS011;12055;52.098;13.176;2022-07-23T06:00:38;8.32;;;4.90;;
23750;SDS011;12055;52.098;13.176;2022-07-23T06:03:04;12.07;;;5.30;;
23750;SDS011;12055;52.098;13.176;2022-07-23T06:05:29;10.65;;;6.20;;
23750;SDS011;12055;52.098;13.176;2022-07-23T06:07:55;8.73;;;4.93;;
23750;SDS011;12055;52.098;13.176;2022-07-23T06:10:20;9.38;;;5.32;;
23750;SDS011;12055;52.098;13.176;2022-07-23T06:12:46;7.85;;;5.35;;
23750;SDS011;12055;52.098;13.176;2022-07-23T06:15:12;15.75;;;6.22;;
23750;SDS011;12055;52.098;13.176;2022-07-23T06:17:38;10.27;;;5.30;;
23750;SDS011;12055;52.098;13.176;2022-07-23T06:20:04;11.05;;;5.93;;
23750;SDS011;12055;52.098;13.176;2022-07-23T06:22:34;10.10;;;5.47;;
23750;SDS011;12055;52.098;13.176;2022-07-23T06:25:00;8.25;;;5.22;;
23750;SDS011;12055;52.098;13.176;2022-07-23T06:27:25;8.05;;;5.10;;
23750;SDS011;12055;52.098;13.176;2022-07-23T06:29:51;9.35;;;4.93;;
23750;SDS011;12055;52.098;13.176;2022-07-23T06:32:16;9.68;;;4.85;;
23750;SDS011;12055;52.098;13.176;2022-07-23T06:34:42;9.35;;;5.07;;
23750;SDS011;12055;52.098;13.176;2022-07-23T06:37:07;10.45;;;5.43;;
23750;SDS011;12055;52.098;13.176;2022-07-23T06:39:33;6.93;;;4.78;;
23750;SDS011;12055;52.098;13.176;2022-07-23T06:41:58;8.55;;;4.63;;
23750;SDS011;12055;52.098;13.176;2022-07-23T06:44:25;12.68;;;4.88;;
23750;SDS011;12055;52.098;13.176;2022-07-23T06:46:51;8.02;;;5.07;;
23750;SDS011;12055;52.098;13.176;2022-07-23T06:49:16;10.73;;;5.13;;
23750;SDS011;12055;52.098;13.176;2022-07-23T06:51:42;10.77;;;4.68;;
23750;SDS011;12055;52.098;13.176;2022-07-23T06:54:07;9.30;;;4.82;;
23750;SDS011;12055;52.098;13.176;2022-07-23T06:56:33;9.82;;;4.68;;
23750;SDS011;12055;52.098;13.176;2022-07-23T06:58:58;9.23;;;5.15;;
23750;SDS011;12055;52.098;13.176;2022-07-23T07:01:24;6.65;;;4.80;;
23750;SDS011;12055;52.098;13.176;2022-07-23T07:03:49;9.23;;;5.47;;
23750;SDS011;12055;52.098;13.176;2022-07-23T07:06:16;8.35;;;5.65;;
23750;SDS011;12055;52.098;13.176;2022-07-23T07:08:41;8.98;;;4.82;;
23750;SDS011;12055;52.098;13.176;2022-07-23T07:11:08;8.68;;;4.95;;
23750;SDS011;12055;52.098;13.176;2022-07-23T07:13:34;10.35;;;5.75;;
23750;SDS011;12055;52.098;13.176;2022-07-23T07:15:59;9.23;;;4.97;;
23750;SDS011;12055;52.098;13.176;2022-07-23T07:18:25;11.00;;;5.82;;
23750;SDS011;12055;52.098;13.176;2022-07-23T07:20:50;8.77;;;4.57;;
23750;SDS011;12055;52.098;13.176;2022-07-23T07:23:16;10.65;;;5.22;;
23750;SDS011;12055;52.098;13.176;2022-07-23T07:25:41;9.98;;;5.38;;
23750;SDS011;12055;52.098;13.176;2022-07-23T07:28:07;10.52;;;5.78;;
23750;SDS011;12055;52.098;13.176;2022-07-23T07:30:32;13.65;;;5.82;;
23750;SDS011;12055;52.098;13.176;2022-07-23T07:32:58;10.10;;;5.57;;
23750;SDS011;12055;52.098;13.176;2022-07-23T07:35:23;11.05;;;6.32;;
23750;SDS011;12055;52.098;13.176;2022-07-23T07:37:49;11.55;;;5.95;;
23750;SDS011;12055;52.098;13.176;2022-07-23T07:40:15;11.60;;;6.13;;
23750;SDS011;12055;52.098;13.176;2022-07-23T07:42:44;10.48;;;5.38;;
23750;SDS011;12055;52.098;13.176;2022-07-23T07:45:13;12.27;;;6.00;;
23750;SDS011;12055;52.098;13.176;2022-07-23T07:47:39;12.48;;;6.15;;
23750;SDS011;12055;52.098;13.176;2022-07-23T07:50:04;10.57;;;5.70;;
23750;SDS011;12055;52.098;13.176;2022-07-23T07:52:30;9.48;;;5.13;;
23750;SDS011;12055;52.098;13.176;2022-07-23T07:54:55;9.43;;;5.10;;
23750;SDS011;12055;52.098;13.176;2022-07-23T07:57:21;12.65;;;7.13;;
23750;SDS011;12055;52.098;13.176;2022-07-23T07:59:46;8.63;;;4.93;;
23750;SDS011;12055;52.098;13.176;2022-07-23T08:02:12;8.90;;;5.07;;
23750;SDS011;12055;52.098;13.176;2022-07-23T08:04:37;12.43;;;5.65;;
23750;SDS011;12055;52.098;13.176;2022-07-23T08:07:03;8.13;;;5.07;;
23750;SDS011;12055;52.098;13.176;2022-07-23T08:09:28;8.13;;;4.80;;
23750;SDS011;12055;52.098;13.176;2022-07-23T08:11:54;9.43;;;5.40;;
23750;SDS011;12055;52.098;13.176;2022-07-23T08:14:19;9.35;;;5.57;;
23750;SDS011;12055;52.098;13.176;2022-07-23T08:16:45;6.47;;;4.13;;
23750;SDS011;12055;52.098;13.176;2022-07-23T08:19:10;9.27;;;5.25;;
23750;SDS011;12055;52.098;13.176;2022-07-23T08:21:35;6.03;;;4.47;;
23750;SDS011;12055;52.098;13.176;2022-07-23T08:24:01;7.50;;;4.35;;
23750;SDS011;12055;52.098;13.176;2022-07-23T08:26:26;5.32;;;4.05;;
23750;SDS011;12055;52.098;13.176;2022-07-23T08:28:52;9.52;;;4.47;;
23750;SDS011;12055;52.098;13.176;2022-07-23T08:31:17;6.97;;;4.15;;
23750;SDS011;12055;52.098;13.176;2022-07-23T08:33:43;8.13;;;4.25;;
23750;SDS011;12055;52.098;13.176;2022-07-23T08:36:09;6.40;;;3.58;;
23750;SDS011;12055;52.098;13.176;2022-07-23T08:38:34;6.10;;;4.20;;
23750;SDS011;12055;52.098;13.176;2022-07-23T08:41:00;5.15;;;3.58;;
23750;SDS011;12055;52.098;13.176;2022-07-23T08:43:28;9.85;;;4.00;;
23750;SDS011;12055;52.098;13.176;2022-07-23T08:45:56;9.13;;;4.82;;
23750;SDS011;12055;52.098;13.176;2022-07-23T08:48:25;7.60;;;4.05;;
23750;SDS011;12055;52.098;13.176;2022-07-23T08:50:53;6.38;;;4.03;;
23750;SDS011;12055;52.098;13.176;2022-07-23T08:53:20;6.97;;;4.30;;
23750;SDS011;12055;52.098;13.176;2022-07-23T08:55:48;11.73;;;5.00;;
23750;SDS011;12055;52.098;13.176;2022-07-23T08:58:15;5.72;;;4.22;;
23750;SDS011;12055;52.098;13.176;2022-07-23T09:00:41;6.05;;;3.85;;
23750;SDS011;12055;52.098;13.176;2022-07-23T09:03:06;6.03;;;3.72;;
23750;SDS011;12055;52.098;13.176;2022-07-23T09:05:32;6.20;;;4.65;;
23750;SDS011;12055;52.098;13.176;2022-07-23T09:08:04;9.13;;;5.05;;
23750;SDS011;12055;52.098;13.176;2022-07-23T09:15:53;9.75;;;4.53;;
23750;SDS011;12055;52.098;13.176;2022-07-23T09:18:27;9.52;;;4.85;;
23750;SDS011;12055;52.098;13.176;2022-07-23T09:21:39;12.55;;;4.65;;
23750;SDS011;12055;52.098;13.176;2022-07-23T09:23:46;6.38;;;4.43;;
23750;SDS011;12055;52.098;13.176;2022-07-23T09:28:49;8.93;;;4.70;;
23750;SDS011;12055;52.098;13.176;2022-07-23T09:31:17;8.02;;;4.47;;
23750;SDS011;12055;52.098;13.176;2022-07-23T09:33:43;8.80;;;5.47;;
23750;SDS011;12055;52.098;13.176;2022-07-23T09:36:08;6.63;;;5.03;;
23750;SDS011;12055;52.098;13.176;2022-07-23T09:38:34;7.97;;;5.20;;
23750;SDS011;12055;52.098;13.176;2022-07-23T09:41:12;8.80;;;4.53;;
23750;SDS011;12055;52.098;13.176;2022-07-23T09:43:38;8.38;;;4.88;;
23750;SDS011;12055;52.098;13.176;2022-07-23T09:46:23;10.38;;;5.28;;
23750;SDS011;12055;52.098;13.176;2022-07-23T09:48:52;8.60;;;5.55;;
23750;SDS011;12055;52.098;13.176;2022-07-23T09:51:21;6.55;;;5.05;;
23750;SDS011;12055;52.098;13.176;2022-07-23T09:53:50;16.30;;;8.82;;
23750;SDS011;12055;52.098;13.176;2022-07-23T09:56:15;8.93;;;6.93;;
23750;SDS011;12055;52.098;13.176;2022-07-23T09:58:42;6.75;;;4.53;;
23750;SDS011;12055;52.098;13.176;2022-07-23T10:01:16;9.67;;;5.73;;
23750;SDS011;12055;52.098;13.176;2022-07-23T10:03:42;6.97;;;5.43;;
23750;SDS011;12055;52.098;13.176;2022-07-23T10:06:08;7.05;;;4.82;;
23750;SDS011;12055;52.098;13.176;2022-07-23T10:08:35;12.15;;;6.03;;
23750;SDS011;12055;52.098;13.176;2022-07-23T10:11:00;9.68;;;6.18;;
23750;SDS011;12055;52.098;13.176;2022-07-23T10:13:27;9.02;;;6.13;;
23750;SDS011;12055;52.098;13.176;2022-07-23T10:15:59;9.70;;;6.07;;
23750;SDS011;12055;52.098;13.176;2022-07-23T10:18:24;8.30;;;5.60;;
23750;SDS011;12055;52.098;13.176;2022-07-23T10:20:51;7.22;;;5.25;;
23750;SDS011;12055;52.098;13.176;2022-07-23T10:23:22;10.55;;;5.25;;
23750;SDS011;12055;52.098;13.176;2022-07-23T10:28:52;10.23;;;6.10;;
23750;SDS011;12055;52.098;13.176;2022-07-23T10:31:28;9.27;;;6.85;;
23750;SDS011;12055;52.098;13.176;2022-07-23T10:37:27;9.13;;;5.90;;
23750;SDS011;12055;52.098;13.176;2022-07-23T10:40:13;7.68;;;5.50;;
23750;SDS011;12055;52.098;13.176;2022-07-23T10:42:46;8.68;;;5.45;;
23750;SDS011;12055;52.098;13.176;2022-07-23T10:50:43;21.85;;;9.57;;
23750;SDS011;12055;52.098;13.176;2022-07-23T10:53:29;7.75;;;5.10;;
23750;SDS011;12055;52.098;13.176;2022-07-23T10:56:14;6.95;;;5.10;;
23750;SDS011;12055;52.098;13.176;2022-07-23T10:58:46;5.90;;;4.55;;
23750;SDS011;12055;52.098;13.176;2022-07-23T11:01:32;9.18;;;4.63;;
23750;SDS011;12055;52.098;13.176;2022-07-23T11:03:59;7.97;;;5.45;;
23750;SDS011;12055;52.098;13.176;2022-07-23T11:06:47;7.88;;;4.90;;
23750;SDS011;12055;52.098;13.176;2022-07-23T11:09:28;6.85;;;5.05;;
23750;SDS011;12055;52.098;13.176;2022-07-23T11:17:33;6.15;;;5.00;;
23750;SDS011;12055;52.098;13.176;2022-07-23T11:20:22;7.88;;;5.13;;
23750;SDS011;12055;52.098;13.176;2022-07-23T11:22:49;8.55;;;5.38;;
23750;SDS011;12055;52.098;13.176;2022-07-23T11:27:53;8.13;;;5.43;;
23750;SDS011;12055;52.098;13.176;2022-07-23T11:32:54;5.80;;;4.75;;
23750;SDS011;12055;52.098;13.176;2022-07-23T11:35:40;7.30;;;5.45;;
23750;SDS011;12055;52.098;13.176;2022-07-23T11:40:42;8.75;;;5.60;;
23750;SDS011;12055;52.098;13.176;2022-07-23T11:43:10;6.22;;;4.60;;
23750;SDS011;12055;52.098;13.176;2022-07-23T11:45:38;8.95;;;4.93;;
23750;SDS011;12055;52.098;13.176;2022-07-23T11:48:07;6.47;;;4.57;;
23750;SDS011;12055;52.098;13.176;2022-07-23T11:50:46;7.90;;;5.18;;
23750;SDS011;12055;52.098;13.176;2022-07-23T11:53:12;6.97;;;5.13;;
23750;SDS011;12055;52.098;13.176;2022-07-23T11:55:38;7.93;;;5.97;;
23750;SDS011;12055;52.098;13.176;2022-07-23T11:58:04;9.73;;;6.43;;
23750;SDS011;12055;52.098;13.176;2022-07-23T12:00:30;7.40;;;5.05;;
23750;SDS011;12055;52.098;13.176;2022-07-23T12:03:00;7.28;;;5.47;;
23750;SDS011;12055;52.098;13.176;2022-07-23T12:05:29;10.85;;;5.05;;
23750;SDS011;12055;52.098;13.176;2022-07-23T12:07:57;9.48;;;5.15;;
23750;SDS011;12055;52.098;13.176;2022-07-23T12:10:30;6.85;;;5.38;;
23750;SDS011;12055;52.098;13.176;2022-07-23T12:13:01;7.28;;;4.47;;
23750;SDS011;12055;52.098;13.176;2022-07-23T12:15:30;6.50;;;4.88;;
23750;SDS011;12055;52.098;13.176;2022-07-23T12:18:02;7.68;;;4.35;;
23750;SDS011;12055;52.098;13.176;2022-07-23T12:20:29;7.20;;;4.25;;
23750;SDS011;12055;52.098;13.176;2022-07-23T12:22:58;6.30;;;4.35;;
23750;SDS011;12055;52.098;13.176;2022-07-23T12:25:26;4.97;;;3.83;;
23750;SDS011;12055;52.098;13.176;2022-07-23T12:30:43;5.93;;;4.65;;
23750;SDS011;12055;52.098;13.176;2022-07-23T12:33:15;7.20;;;4.15;;
23750;SDS011;12055;52.098;13.176;2022-07-23T12:36:01;4.63;;;4.07;;
23750;SDS011;12055;52.098;13.176;2022-07-23T12:41:07;4.95;;;4.32;;
23750;SDS011;12055;52.098;13.176;2022-07-23T12:43:33;5.75;;;4.15;;
23750;SDS011;12055;52.098;13.176;2022-07-23T12:46:07;10.15;;;4.57;;
23750;SDS011;12055;52.098;13.176;2022-07-23T12:48:35;10.05;;;4.10;;
23750;SDS011;12055;52.098;13.176;2022-07-23T12:51:17;4.95;;;3.88;;
23750;SDS011;12055;52.098;13.176;2022-07-23T12:53:46;7.68;;;4.15;;
23750;SDS011;12055;52.098;13.176;2022-07-23T12:56:14;6.13;;;4.20;;
23750;SDS011;12055;52.098;13.176;2022-07-23T12:58:55;9.80;;;4.68;;
23750;SDS011;12055;52.098;13.176;2022-07-23T13:01:33;7.38;;;4.38;;
23750;SDS011;12055;52.098;13.176;2022-07-23T13:04:01;6.03;;;4.47;;
23750;SDS011;12055;52.098;13.176;2022-07-23T13:06:30;5.90;;;4.20;;
23750;SDS011;12055;52.098;13.176;2022-07-23T13:08:58;4.32;;;3.80;;
23750;SDS011;12055;52.098;13.176;2022-07-23T13:11:24;6.35;;;4.38;;
23750;SDS011;12055;52.098;13.176;2022-07-23T13:13:49;6.07;;;4.60;;
23750;SDS011;12055;52.098;13.176;2022-07-23T13:16:15;6.13;;;4.20;;
23750;SDS011;12055;52.098;13.176;2022-07-23T13:18:41;6.80;;;4.10;;
23750;SDS011;12055;52.098;13.176;2022-07-23T13:21:06;6.03;;;4.28;;
23750;SDS011;12055;52.098;13.176;2022-07-23T13:23:33;5.32;;;4.30;;
23750;SDS011;12055;52.098;13.176;2022-07-23T13:25:58;4.22;;;3.80;;
23750;SDS011;12055;52.098;13.176;2022-07-23T13:28:24;4.72;;;4.03;;
23750;SDS011;12055;52.098;13.176;2022-07-23T13:30:50;6.07;;;4.30;;
23750;SDS011;12055;52.098;13.176;2022-07-23T13:33:17;5.15;;;3.83;;
23750;SDS011;12055;52.098;13.176;2022-07-23T13:35:47;4.95;;;3.85;;
23750;SDS011;12055;52.098;13.176;2022-07-23T13:38:12;6.35;;;4.15;;
23750;SDS011;12055;52.098;13.176;2022-07-23T13:40:39;4.65;;;3.97;;
23750;SDS011;12055;52.098;13.176;2022-07-23T13:43:07;8.77;;;4.07;;
23750;SDS011;12055;52.098;13.176;2022-07-23T13:45:37;5.32;;;4.47;;
23750;SDS011;12055;52.098;13.176;2022-07-23T13:48:04;6.80;;;4.10;;
23750;SDS011;12055;52.098;13.176;2022-07-23T13:50:31;6.55;;;4.00;;
23750;SDS011;12055;52.098;13.176;2022-07-23T13:53:00;7.40;;;4.57;;
23750;SDS011;12055;52.098;13.176;2022-07-23T13:55:26;5.07;;;4.07;;
23750;SDS011;12055;52.098;13.176;2022-07-23T13:57:52;4.47;;;4.00;;
23750;SDS011;12055;52.098;13.176;2022-07-23T14:00:17;5.93;;;4.82;;
23750;SDS011;12055;52.098;13.176;2022-07-23T14:02:43;5.32;;;4.25;;
23750;SDS011;12055;52.098;13.176;2022-07-23T14:05:09;5.43;;;3.78;;
23750;SDS011;12055;52.098;13.176;2022-07-23T14:07:35;5.15;;;4.25;;
23750;SDS011;12055;52.098;13.176;2022-07-23T14:10:03;6.68;;;4.25;;
23750;SDS011;12055;52.098;13.176;2022-07-23T14:12:29;6.53;;;5.03;;
23750;SDS011;12055;52.098;13.176;2022-07-23T14:14:55;4.35;;;3.95;;
23750;SDS011;12055;52.098;13.176;2022-07-23T14:17:21;4.55;;;3.90;;
23750;SDS011;12055;52.098;13.176;2022-07-23T14:19:47;5.85;;;3.63;;
23750;SDS011;12055;52.098;13.176;2022-07-23T14:22:12;5.78;;;4.15;;
23750;SDS011;12055;52.098;13.176;2022-07-23T14:24:38;6.57;;;4.05;;
23750;SDS011;12055;52.098;13.176;2022-07-23T14:27:04;3.95;;;3.55;;
23750;SDS011;12055;52.098;13.176;2022-07-23T14:29:30;4.57;;;3.53;;
23750;SDS011;12055;52.098;13.176;2022-07-23T14:31:56;4.22;;;3.83;;
23750;SDS011;12055;52.098;13.176;2022-07-23T14:34:22;8.65;;;4.18;;
23750;SDS011;12055;52.098;13.176;2022-07-23T14:36:48;6.65;;;3.70;;
23750;SDS011;12055;52.098;13.176;2022-07-23T14:39:13;4.80;;;3.75;;
23750;SDS011;12055;52.098;13.176;2022-07-23T14:41:39;5.22;;;3.70;;
23750;SDS011;12055;52.098;13.176;2022-07-23T14:44:04;4.65;;;3.60;;
23750;SDS011;12055;52.098;13.176;2022-07-23T14:46:30;5.25;;;3.70;;
23750;SDS011;12055;52.098;13.176;2022-07-23T14:48:56;5.38;;;3.83;;
23750;SDS011;12055;52.098;13.176;2022-07-23T14:51:21;4.40;;;3.25;;
23750;SDS011;12055;52.098;13.176;2022-07-23T14:53:47;7.82;;;3.85;;
23750;SDS011;12055;52.098;13.176;2022-07-23T14:56:13;5.30;;;3.60;;
23750;SDS011;12055;52.098;13.176;2022-07-23T14:58:39;5.60;;;3.50;;
23750;SDS011;12055;52.098;13.176;2022-07-23T15:01:05;6.28;;;3.65;;
23750;SDS011;12055;52.098;13.176;2022-07-23T15:03:31;5.75;;;3.22;;
23750;SDS011;12055;52.098;13.176;2022-07-23T15:05:58;5.28;;;3.85;;
23750;SDS011;12055;52.098;13.176;2022-07-23T15:08:23;8.50;;;3.70;;